Home   Weather   Guadeloupe   Pointe-à-Pitre   Past weeks
Flag for Guadeloupe

Past Weather in Pointe-à-Pitre, Guadeloupe — Yesterday and Last 2 Weeks

Currently: 73 °F. Clear. (Weather station: Le Raizet - Guadeloupe, Guadeloupe). See more current weather

Past Weather in Pointe-à-Pitre — Graph

°F

Pointe-à-Pitre Temperature Yesterday

Maximum temperature yesterday: 86 °F (at 11:00 am)
Minimum temperature yesterday: 75 °F (at 12:00 am)
Average temperature yesterday: 80 °F

High & Low Weather Summary for the Past Weeks

 TemperatureHumidityPressure
High86 °F (Feb 6, 10:30 am)100% (Feb 9, 4:30 am)30.09 "Hg (Feb 9, 4:30 am)
Low68 °F (Feb 8, 7:30 pm)55% (Feb 19, 11:00 am)29.80 "Hg (Feb 6, 2:30 am)
Average78 °F82%30.01 "Hg
* Reported Feb 5 9:00 pm — Feb 20 9:00 pm, Pointe-à-Pitre. Weather by CustomWeather, © 2024

Note: Actual official high and low records may vary slightly from our data, if they occured in-between our weather recording intervals... More about our weather records

Pointe-à-Pitre Weather History for the Previous 24 Hours

Scroll right to see more
 ConditionsComfort  
Time TempWeatherWind HumidityBarometerVisibility
9:00 pm
Tue, Feb 20
75 °FClear.5 mph89%30.01 "Hg10 mi
7:30 pm75 °FClear.2 mph94%29.98 "Hg10 mi
7:00 pm75 °FClear.2 mph94%29.98 "Hg10 mi
6:30 pm77 °FClear.No wind83%29.98 "Hg10 mi
6:00 pm77 °FMostly cloudy.3 mph83%29.98 "HgN/A
5:30 pm77 °FPartly sunny.5 mph89%29.98 "HgN/A
5:00 pm77 °FMostly cloudy.5 mph89%29.98 "HgN/A
4:30 pm77 °FBroken clouds.8 mph83%29.98 "HgN/A
4:00 pm79 °FLight rain. Broken clouds.13 mph79%29.95 "HgN/A
3:30 pm82 °FMostly cloudy.7 mph70%29.95 "HgN/A
3:00 pm81 °FPartly sunny.8 mph74%29.98 "HgN/A
2:30 pm77 °FBroken clouds.5 mph83%29.98 "HgN/A
2:00 pm75 °FLight rain. Fog.12 mph89%30.01 "Hg2 mi
1:30 pm77 °FLight rain. Broken clouds.14 mph83%30.01 "HgN/A
1:00 pm82 °FPartly sunny.12 mph66%30.01 "HgN/A
12:30 pm82 °FBroken clouds.12 mph74%30.01 "HgN/A
12:00 pm84 °FPartly sunny.9 mph66%30.04 "HgN/A
11:30 am79 °FPartly sunny.8 mph79%30.04 "Hg1 mi
11:00 am82 °FBroken clouds.6 mph74%30.07 "HgN/A
10:30 am81 °FPartly sunny.9 mph79%30.07 "HgN/A
10:00 am77 °FLight rain. Broken clouds.10 mph89%30.07 "Hg5 mi
9:30 am81 °FBroken clouds.7 mph79%30.07 "HgN/A
9:00 am77 °FPartly sunny.6 mph89%30.07 "HgN/A
8:30 am77 °FBroken clouds.6 mph89%30.07 "HgN/A
8:00 am75 °FPartly sunny.5 mph89%30.04 "HgN/A
7:30 am73 °FPartly sunny.3 mph94%30.04 "HgN/A
7:00 am72 °FBroken clouds.6 mph94%30.04 "HgN/A
6:30 am70 °FMild.1 mph94%30.01 "HgN/A
6:00 am70 °FClear.2 mph94%30.01 "Hg10 mi
5:30 am70 °FPassing clouds.1 mph94%30.01 "HgN/A
5:00 am68 °FClear.1 mph94%30.01 "Hg10 mi
4:30 am70 °FClear.1 mph94%29.98 "Hg10 mi
4:00 am70 °FClear.No wind94%30.01 "Hg10 mi
3:30 am70 °FClear.1 mph94%30.01 "Hg10 mi
3:00 am70 °FClear.No wind88%30.01 "Hg10 mi
2:30 am70 °FClear.No wind94%30.01 "Hg10 mi
2:00 am72 °FClear.No wind88%30.01 "Hg10 mi
1:30 am72 °FClear.3 mph88%30.04 "Hg10 mi
1:00 am73 °FClear.3 mph83%30.04 "Hg10 mi
12:30 am75 °FClear.5 mph78%30.07 "Hg10 mi
12:00 am75 °FClear.6 mph78%30.07 "Hg10 mi
11:30 pm
Mon, Feb 19
75 °FClear.7 mph78%30.07 "Hg10 mi
11:00 pm75 °FClear.6 mph83%30.07 "Hg10 mi
10:30 pm77 °FClear.7 mph79%30.07 "Hg10 mi
10:00 pm77 °FClear.6 mph79%30.07 "Hg10 mi
Weather by CustomWeather, © 2024

See weather overview